createdAt,value
2019-02-11T00:00:36.463Z,94352.37
2019-02-11T00:03:04.786Z,94353.27
2019-02-11T00:05:33.033Z,94346.95
2019-02-11T00:08:01.283Z,94352.45
2019-02-11T00:10:29.550Z,94335.16
2019-02-11T00:12:57.835Z,94331.79
2019-02-11T00:15:26.097Z,94332.66
2019-02-11T00:17:54.415Z,94327.22
2019-02-11T00:20:22.670Z,94319.19
2019-02-11T00:22:50.932Z,94330.58
2019-02-11T00:25:19.449Z,94332.28
2019-02-11T00:27:47.728Z,94327.23
2019-02-11T00:30:15.987Z,94318.81
2019-02-11T00:32:44.303Z,94315.87
2019-02-11T00:35:12.538Z,94319.70
2019-02-11T00:37:40.837Z,94310.86
2019-02-11T00:40:09.094Z,94315.95
2019-02-11T00:42:37.385Z,94308.36
2019-02-11T00:45:07.277Z,94308.78
2019-02-11T00:47:35.618Z,94307.11
2019-02-11T00:50:05.427Z,94302.50
2019-02-11T00:52:33.679Z,94297.03
2019-02-11T00:55:01.979Z,94294.53
2019-02-11T00:57:30.238Z,94291.59
2019-02-11T00:59:58.486Z,94278.53
2019-02-11T01:02:26.770Z,94276.00
2019-02-11T01:04:55.032Z,94272.70
2019-02-11T01:07:23.303Z,94267.21
2019-02-11T01:09:51.631Z,94271.42
2019-02-11T01:12:20.149Z,94263.00
2019-02-11T01:14:48.398Z,94263.03
2019-02-11T01:17:16.722Z,94252.07
2019-02-11T01:19:44.989Z,94246.60
2019-02-11T01:22:13.239Z,94254.19
2019-02-11T01:24:41.526Z,94251.69
2019-02-11T01:27:09.792Z,94247.05
2019-02-11T01:29:38.121Z,94252.54
2019-02-11T01:32:06.370Z,94252.55
2019-02-11T01:34:34.630Z,94258.00
2019-02-11T01:37:02.888Z,94271.52
2019-02-11T01:39:31.241Z,94273.19
2019-02-11T01:41:59.538Z,94273.20
2019-02-11T01:44:27.790Z,94275.33
2019-02-11T01:46:56.043Z,94274.05
2019-02-11T01:49:24.353Z,94269.87
2019-02-11T01:51:52.643Z,94269.02
2019-02-11T01:54:20.939Z,94261.87
2019-02-11T01:56:49.186Z,94259.76
2019-02-11T01:59:17.439Z,94253.45
2019-02-11T02:01:45.732Z,94255.95
2019-02-11T02:04:14.046Z,94254.71
2019-02-11T02:06:42.294Z,94249.66
2019-02-11T02:09:10.952Z,94251.38
2019-02-11T02:11:39.238Z,94242.12
2019-02-11T02:14:07.497Z,94240.04
2019-02-11T02:16:35.781Z,94240.05
2019-02-11T02:19:04.036Z,94236.27
2019-02-11T02:21:32.326Z,94232.89
2019-02-11T02:24:00.584Z,94230.77
2019-02-11T02:26:28.840Z,94220.23
2019-02-11T02:28:57.153Z,94221.92
2019-02-11T02:31:25.442Z,94220.67
2019-02-11T02:33:53.696Z,94209.73
2019-02-11T02:36:21.975Z,94213.10
2019-02-11T02:38:50.278Z,94209.72
2019-02-11T02:41:18.557Z,94199.22
2019-02-11T02:43:55.225Z,94202.58
2019-02-11T02:46:16.828Z,94199.22
2019-02-11T02:48:45.079Z,94192.89
2019-02-11T02:51:13.374Z,94188.28
2019-02-11T02:53:41.631Z,94192.45
2019-02-11T02:56:09.927Z,94187.83
2019-02-11T02:58:38.177Z,94191.63
2019-02-11T03:01:06.421Z,94192.47
2019-02-11T03:03:34.694Z,94196.25
2019-02-11T03:06:02.962Z,94189.09
2019-02-11T03:08:31.242Z,94196.26
2019-02-11T03:10:59.492Z,94200.06
2019-02-11T03:13:27.743Z,94203.44
2019-02-11T03:15:56.018Z,94210.17
2019-02-11T03:18:24.266Z,94216.91
2019-02-11T03:20:52.549Z,94221.95
2019-02-11T03:23:20.826Z,94221.14
2019-02-11T03:25:49.086Z,94222.80
2019-02-11T03:28:17.536Z,94227.44
2019-02-11T03:30:45.797Z,94228.70
2019-02-11T03:33:14.073Z,94234.59
2019-02-11T03:35:42.328Z,94235.02
2019-02-11T03:38:10.591Z,94237.95
2019-02-11T03:40:38.845Z,94238.39
2019-02-11T03:43:07.125Z,94237.56
2019-02-11T03:45:35.381Z,94228.28
2019-02-11T03:48:03.647Z,94229.97
2019-02-11T03:50:31.898Z,94224.92
2019-02-11T03:53:00.177Z,94240.51
2019-02-11T03:55:28.440Z,94242.59
2019-02-11T03:57:56.714Z,94238.39
2019-02-11T04:00:25.022Z,94241.77
2019-02-11T04:02:53.277Z,94236.30
2019-02-11T04:05:21.548Z,94242.62
2019-02-11T04:07:49.819Z,94236.31
2019-02-11T04:10:18.067Z,94234.20
2019-02-11T04:12:46.349Z,94237.99
2019-02-11T04:15:14.646Z,94239.27
2019-02-11T04:17:42.891Z,94237.16
2019-02-11T04:20:11.137Z,94240.09
2019-02-11T04:22:39.431Z,94235.05
2019-02-11T04:25:07.851Z,94230.02
2019-02-11T04:27:36.144Z,94226.20
2019-02-11T04:30:05.827Z,94217.38
2019-02-11T04:32:34.079Z,94223.27
2019-02-11T04:35:02.364Z,94217.36
2019-02-11T04:37:30.705Z,94220.73
2019-02-11T04:39:58.920Z,94214.84
2019-02-11T04:42:27.187Z,94208.53
2019-02-11T04:44:55.471Z,94201.77
2019-02-11T04:47:23.725Z,94191.27
2019-02-11T04:49:52.028Z,94190.00
2019-02-11T04:52:20.279Z,94187.89
2019-02-11T04:54:48.601Z,94183.28
2019-02-11T04:57:16.874Z,94175.29
2019-02-11T04:59:45.156Z,94177.79
2019-02-11T05:02:13.427Z,94179.48
2019-02-11T05:04:41.676Z,94181.17
2019-02-11T05:07:10.002Z,94181.59
2019-02-11T05:09:38.247Z,94189.59
2019-02-11T05:12:06.501Z,94195.47
2019-02-11T05:14:43.227Z,94204.73
2019-02-11T05:17:04.746Z,94204.75
2019-02-11T05:19:33.027Z,94216.55
2019-02-11T05:22:01.278Z,94217.36
2019-02-11T05:24:29.565Z,94223.27
2019-02-11T05:26:57.836Z,94239.70
2019-02-11T05:29:26.093Z,94235.45
2019-02-11T05:31:54.458Z,94244.73
2019-02-11T05:34:22.712Z,94238.83
2019-02-11T05:36:50.972Z,94241.38
2019-02-11T05:39:19.254Z,94242.22
2019-02-11T05:41:47.502Z,94239.27
2019-02-11T05:44:15.830Z,94236.32
2019-02-11T05:46:44.086Z,94230.42
2019-02-11T05:49:12.338Z,94224.53
2019-02-11T05:51:40.604Z,94218.22
2019-02-11T05:54:08.851Z,94211.08
2019-02-11T05:56:37.119Z,94213.18
2019-02-11T05:59:05.383Z,94209.80
2019-02-11T06:01:33.927Z,94186.24
2019-02-11T06:04:02.182Z,94193.80
2019-02-11T06:06:30.463Z,94205.59
2019-02-11T06:08:58.723Z,94220.30
2019-02-11T06:11:27.015Z,94234.65
2019-02-11T06:13:55.261Z,94244.75
2019-02-11T06:16:23.546Z,94248.95
2019-02-11T06:18:51.809Z,94259.91
2019-02-11T06:21:20.101Z,94267.05
2019-02-11T06:23:48.431Z,94262.84
2019-02-11T06:26:16.716Z,94267.03
2019-02-11T06:28:44.970Z,94279.27
2019-02-11T06:31:13.246Z,94290.20
2019-02-11T06:33:41.505Z,94291.47
2019-02-11T06:36:12.502Z,94285.98
2019-02-11T06:38:39.790Z,94280.95
2019-02-11T06:41:08.027Z,94278.41
2019-02-11T06:43:36.308Z,94271.23
2019-02-11T06:46:04.584Z,94275.88
2019-02-11T06:48:32.981Z,94280.08
2019-02-11T06:51:01.268Z,94275.03
2019-02-11T06:53:29.520Z,94275.85
2019-02-11T06:55:57.802Z,94278.39
2019-02-11T06:58:26.102Z,94274.56
2019-02-11T07:00:54.358Z,94273.30
2019-02-11T07:03:22.861Z,94271.18
2019-02-11T07:05:51.177Z,94274.98
2019-02-11T07:08:19.415Z,94275.80
2019-02-11T07:10:55.261Z,94261.05
2019-02-11T07:13:17.671Z,94254.28
2019-02-11T07:15:45.931Z,94242.91
2019-02-11T07:18:14.205Z,94234.08
2019-02-11T07:20:42.467Z,94225.64
2019-02-11T07:23:10.770Z,94220.56
2019-02-11T07:25:39.025Z,94229.39
2019-02-11T07:28:07.447Z,94244.11
2019-02-11T07:30:35.782Z,94256.34
2019-02-11T07:33:04.048Z,94254.62
2019-02-11T07:35:32.346Z,94266.41
2019-02-11T07:38:00.600Z,94273.98
2019-02-11T07:40:29.146Z,94280.70
2019-02-11T07:42:59.081Z,94276.09
2019-02-11T07:45:37.820Z,94277.77
2019-02-11T07:48:06.169Z,94286.19
2019-02-11T07:50:34.422Z,94285.76
2019-02-11T07:53:02.817Z,94291.23
2019-02-11T07:55:31.075Z,94289.95
2019-02-11T07:57:59.327Z,94298.40
2019-02-11T08:00:27.642Z,94300.11
2019-02-11T08:02:55.891Z,94314.89
2019-02-11T08:05:24.180Z,94320.79
2019-02-11T08:07:52.438Z,94317.83
2019-02-11T08:10:20.772Z,94318.65
2019-02-11T08:12:49.039Z,94326.23
2019-02-11T08:15:17.293Z,94336.79
2019-02-11T08:17:46.822Z,94338.89
2019-02-11T08:20:15.224Z,94337.61
2019-02-11T08:22:43.526Z,94344.40
2019-02-11T08:25:11.779Z,94349.04
2019-02-11T08:27:40.035Z,94345.27
2019-02-11T08:30:10.463Z,94341.44
2019-02-11T08:32:38.727Z,94342.70
2019-02-11T08:35:07.855Z,94341.02
2019-02-11T08:37:36.148Z,94342.27
2019-02-11T08:40:07.093Z,94343.13
2019-02-11T08:42:36.235Z,94352.40
2019-02-11T08:45:06.659Z,94340.17
2019-02-11T08:47:34.916Z,94339.30
2019-02-11T08:50:04.054Z,94334.22
2019-02-11T08:52:32.309Z,94335.89
2019-02-11T08:55:00.610Z,94339.69
2019-02-11T08:57:28.875Z,94345.61
2019-02-11T08:59:57.137Z,94348.52
2019-02-11T09:02:25.437Z,94352.33
2019-02-11T09:04:53.691Z,94352.31
2019-02-11T09:07:21.949Z,94350.19
2019-02-11T09:09:50.311Z,94345.53
2019-02-11T09:12:18.569Z,94350.57
2019-02-11T09:14:46.870Z,94348.06
2019-02-11T09:17:15.123Z,94350.17
2019-02-11T09:19:43.413Z,94346.80
2019-02-11T09:22:11.677Z,94362.01
2019-02-11T09:24:39.996Z,94358.61
2019-02-11T09:27:08.248Z,94365.78
2019-02-11T09:29:36.508Z,94367.48
2019-02-11T09:32:04.789Z,94371.66
2019-02-11T09:34:33.053Z,94376.69
2019-02-11T09:37:01.344Z,94386.80
2019-02-11T09:39:29.596Z,94392.67
2019-02-11T09:41:57.886Z,94393.95
2019-02-11T09:44:29.643Z,94393.48
2019-02-11T09:46:56.186Z,94395.16
2019-02-11T09:49:24.475Z,94390.08
2019-02-11T09:51:53.267Z,94382.48
2019-02-11T09:54:21.556Z,94385.80
2019-02-11T09:56:49.816Z,94388.30
2019-02-11T09:59:18.079Z,94392.08
2019-02-11T10:01:46.342Z,94392.02
2019-02-11T10:04:14.670Z,94383.55
2019-02-11T10:06:42.959Z,94387.72
2019-02-11T10:09:11.242Z,94384.22
2019-02-11T10:11:39.495Z,94381.93
2019-02-11T10:14:07.769Z,94373.64
2019-02-11T10:16:36.027Z,94368.75
2019-02-11T10:19:04.304Z,94372.69
2019-02-11T10:21:33.912Z,94373.80
2019-02-11T10:24:02.289Z,94379.11
2019-02-11T10:26:30.557Z,94381.23
2019-02-11T10:28:58.881Z,94369.20
2019-02-11T10:31:27.142Z,94362.33
2019-02-11T10:33:55.397Z,94358.83
2019-02-11T10:36:23.686Z,94360.91
2019-02-11T10:38:51.951Z,94359.96
2019-02-11T10:41:20.245Z,94367.20
2019-02-11T10:43:48.512Z,94363.52
2019-02-11T10:46:20.954Z,94363.21
2019-02-11T10:48:46.802Z,94358.88
2019-02-11T10:51:15.429Z,94359.19
2019-02-11T10:53:43.756Z,94364.73
2019-02-11T10:56:12.552Z,94362.00
2019-02-11T10:58:40.833Z,94361.63
2019-02-11T11:01:09.097Z,94352.24
2019-02-11T11:03:37.352Z,94360.53
2019-02-11T11:06:05.653Z,94356.12
2019-02-11T11:08:33.983Z,94357.11
2019-02-11T11:11:02.257Z,94352.69
2019-02-11T11:13:30.537Z,94356.33
2019-02-11T11:15:58.805Z,94357.17
2019-02-11T11:18:27.089Z,94361.09
2019-02-11T11:20:55.351Z,94361.79
2019-02-11T11:23:23.637Z,94365.67
2019-02-11T11:25:51.894Z,94370.78
2019-02-11T11:28:20.192Z,94373.39
2019-02-11T11:30:48.447Z,94373.76
2019-02-11T11:33:16.704Z,94367.33
2019-02-11T11:35:45.001Z,94380.03
2019-02-11T11:38:13.299Z,94383.14
2019-02-11T11:40:41.634Z,94376.14
2019-02-11T11:43:09.923Z,94375.06
2019-02-11T11:45:38.217Z,94373.39
2019-02-11T11:48:06.474Z,94379.59
2019-02-11T11:50:34.750Z,94374.37
2019-02-11T11:53:03.029Z,94371.30
2019-02-11T11:55:31.291Z,94390.95
2019-02-11T11:57:59.578Z,94402.96
2019-02-11T12:00:30.044Z,94408.16
2019-02-11T12:03:02.738Z,94407.89
2019-02-11T12:05:28.369Z,94415.06
2019-02-11T12:07:56.614Z,94417.98
2019-02-11T12:10:24.946Z,94422.84
2019-02-11T12:12:53.240Z,94421.06
2019-02-11T12:15:23.460Z,94419.95
2019-02-11T12:17:51.808Z,94420.05
2019-02-11T12:20:20.065Z,94425.64
2019-02-11T12:22:48.402Z,94429.17
2019-02-11T12:25:17.913Z,94433.34
2019-02-11T12:27:46.171Z,94444.98
2019-02-11T12:30:19.794Z,94440.08
2019-02-11T12:32:48.055Z,94445.27
2019-02-11T12:35:16.338Z,94443.56
2019-02-11T12:37:44.596Z,94446.61
2019-02-11T12:40:12.961Z,94451.20
2019-02-11T12:42:41.217Z,94456.34
2019-02-11T12:45:18.111Z,94451.03
2019-02-11T12:47:46.415Z,94461.77
2019-02-11T12:50:18.544Z,94460.99
2019-02-11T12:52:46.790Z,94461.97
2019-02-11T12:55:16.280Z,94468.85
2019-02-11T12:57:44.638Z,94476.59
2019-02-11T13:00:20.935Z,94476.67
2019-02-11T13:02:49.192Z,94477.19
2019-02-11T13:05:22.127Z,94478.97
2019-02-11T13:07:47.530Z,94478.89
2019-02-11T13:10:18.487Z,94497.09
2019-02-11T13:12:46.752Z,94498.77
2019-02-11T13:15:41.504Z,94497.13
2019-02-11T13:17:46.194Z,94503.47
2019-02-11T13:20:16.833Z,94509.02
2019-02-11T13:22:45.139Z,94510.75
2019-02-11T13:25:15.814Z,94517.16
2019-02-11T13:27:44.121Z,94519.75
2019-02-11T13:30:18.418Z,94522.75
2019-02-11T13:32:46.666Z,94526.55
2019-02-11T13:35:14.934Z,94533.32
2019-02-11T13:37:43.200Z,94552.37
2019-02-11T13:40:11.519Z,94551.96
2019-02-11T13:42:39.872Z,94554.13
2019-02-11T13:45:11.418Z,94566.37
2019-02-11T13:47:52.230Z,94582.03
2019-02-11T13:50:12.293Z,94585.02
2019-02-11T13:52:40.553Z,94604.05
2019-02-11T13:55:09.117Z,94617.56
2019-02-11T13:57:37.436Z,94619.25
2019-02-11T14:00:15.829Z,94626.84
2019-02-11T14:02:52.630Z,94620.08
2019-02-11T14:05:20.894Z,94646.72
2019-02-11T14:07:49.211Z,94641.20
2019-02-11T14:10:17.488Z,94646.70
2019-02-11T14:12:46.098Z,94655.17
2019-02-11T14:15:16.555Z,94653.91
2019-02-11T14:17:44.380Z,94658.56
2019-02-11T14:20:15.911Z,94655.17
2019-02-11T14:22:44.161Z,94657.72
2019-02-11T14:25:12.418Z,94662.80
2019-02-11T14:27:40.699Z,94675.47
2019-02-11T14:30:15.435Z,94665.34
2019-02-11T14:32:43.702Z,94650.54
2019-02-11T14:35:11.950Z,94653.94
2019-02-11T14:37:40.252Z,94666.59
2019-02-11T14:40:10.242Z,94650.56
2019-02-11T14:42:38.539Z,94659.01
2019-02-11T14:45:17.766Z,94657.73
2019-02-11T14:47:46.138Z,94662.80
2019-02-11T14:50:14.337Z,94659.42
2019-02-11T14:52:42.586Z,94658.16
2019-02-11T14:55:11.287Z,94676.73
2019-02-11T14:57:39.566Z,94688.11
2019-02-11T15:00:18.079Z,94710.03
2019-02-11T15:02:46.410Z,94712.14
2019-02-11T15:05:14.760Z,94721.84
2019-02-11T15:07:43.051Z,94718.45
2019-02-11T15:10:12.558Z,94732.79
2019-02-11T15:12:40.840Z,94730.25
2019-02-11T15:15:10.626Z,94739.53
2019-02-11T15:17:40.326Z,94728.16
2019-02-11T15:20:10.617Z,94726.05
2019-02-11T15:22:38.914Z,94726.86
2019-02-11T15:25:10.111Z,94718.03
2019-02-11T15:27:38.370Z,94719.28
2019-02-11T15:30:12.136Z,94743.75
2019-02-11T15:32:40.464Z,94743.34
2019-02-11T15:35:09.223Z,94755.16
2019-02-11T15:37:37.475Z,94752.19
2019-02-11T15:40:08.958Z,94751.75
2019-02-11T15:42:37.204Z,94763.55
2019-02-11T15:45:08.796Z,94767.73
2019-02-11T15:47:37.076Z,94782.51
2019-02-11T15:50:08.546Z,94771.96
2019-02-11T15:52:36.795Z,94784.61
2019-02-11T15:55:08.188Z,94782.51
2019-02-11T15:57:36.443Z,94786.73
2019-02-11T16:00:07.979Z,94788.00
2019-02-11T16:02:36.238Z,94781.24
2019-02-11T16:05:06.836Z,94775.31
2019-02-11T16:07:35.161Z,94784.59
2019-02-11T16:10:03.985Z,94785.43
2019-02-11T16:12:32.273Z,94791.33
2019-02-11T16:15:00.530Z,94791.72
2019-02-11T16:17:28.790Z,94797.19
2019-02-11T16:19:57.044Z,94800.57
2019-02-11T16:22:25.337Z,94805.98
2019-02-11T16:24:53.588Z,94798.84
2019-02-11T16:27:21.873Z,94806.88
2019-02-11T16:29:50.193Z,94811.93
2019-02-11T16:32:18.510Z,94816.98
2019-02-11T16:34:46.767Z,94818.64
2019-02-11T16:37:15.031Z,94822.00
2019-02-11T16:39:43.326Z,94822.00
2019-02-11T16:42:11.613Z,94833.39
2019-02-11T16:44:39.896Z,94831.73
2019-02-11T16:47:08.159Z,94832.14
2019-02-11T16:49:36.438Z,94831.73
2019-02-11T16:52:04.693Z,94846.89
2019-02-11T16:54:32.981Z,94827.06
2019-02-11T16:57:01.249Z,94837.59
2019-02-11T16:59:29.544Z,94852.78
2019-02-11T17:01:57.810Z,94853.63
2019-02-11T17:04:26.126Z,94854.91
2019-02-11T17:06:54.383Z,94858.30
2019-02-11T17:09:22.640Z,94862.95
2019-02-11T17:11:50.933Z,94881.51
2019-02-11T17:14:19.185Z,94887.82
2019-02-11T17:16:47.476Z,94893.30
2019-02-11T17:19:15.735Z,94890.36
2019-02-11T17:21:44.009Z,94892.89
2019-02-11T17:24:12.307Z,94901.73
2019-02-11T17:26:40.561Z,94900.88
2019-02-11T17:29:08.861Z,94905.98
2019-02-11T17:31:37.117Z,94911.85
2019-02-11T17:34:05.385Z,94910.17
2019-02-11T17:36:33.651Z,94914.81
2019-02-11T17:39:01.940Z,94908.05
2019-02-11T17:41:30.206Z,94915.66
2019-02-11T17:43:58.493Z,94909.34
2019-02-11T17:46:26.747Z,94916.91
2019-02-11T17:48:55.045Z,94927.41
2019-02-11T17:51:23.291Z,94920.64
2019-02-11T17:53:51.552Z,94946.36
2019-02-11T17:56:19.930Z,94925.72
2019-02-11T17:58:48.186Z,94932.46
2019-02-11T18:01:16.532Z,94933.33
2019-02-11T18:03:44.785Z,94953.58
2019-02-11T18:06:13.079Z,94944.27
2019-02-11T18:08:41.359Z,94942.59
2019-02-11T18:11:09.617Z,94938.38
2019-02-11T18:13:37.905Z,94938.78
2019-02-11T18:16:06.161Z,94935.02
2019-02-11T18:18:34.444Z,94942.22
2019-02-11T18:21:02.795Z,94939.66
2019-02-11T18:23:31.242Z,94955.69
2019-02-11T18:25:59.497Z,94946.02
2019-02-11T18:28:27.800Z,94944.37
2019-02-11T18:30:56.050Z,94953.22
2019-02-11T18:33:24.352Z,94955.77
2019-02-11T18:35:52.644Z,94957.44
2019-02-11T18:38:20.897Z,94950.28
2019-02-11T18:40:49.175Z,94959.55
2019-02-11T18:43:17.436Z,94952.39
2019-02-11T18:45:45.956Z,94962.53
2019-02-11T18:48:14.262Z,94968.87
2019-02-11T18:50:42.518Z,94983.66
2019-02-11T18:53:10.814Z,94976.88
2019-02-11T18:55:39.111Z,94992.48
2019-02-11T18:58:07.412Z,94976.88
2019-02-11T19:00:36.183Z,94977.72
2019-02-11T19:03:04.514Z,94975.63
2019-02-11T19:05:32.808Z,95000.89
2019-02-11T19:08:01.077Z,95031.19
2019-02-11T19:10:29.437Z,95045.09
2019-02-11T19:12:57.691Z,95048.02
2019-02-11T19:15:26.120Z,95043.31
2019-02-11T19:17:54.401Z,95054.66
2019-02-11T19:20:22.657Z,95084.09
2019-02-11T19:22:50.949Z,95073.93
2019-02-11T19:25:19.237Z,95065.43
2019-02-11T19:27:47.599Z,95062.86
2019-02-11T19:30:40.930Z,95062.88
2019-02-11T19:33:09.155Z,95061.11
2019-02-11T19:35:37.462Z,95065.23
2019-02-11T19:38:05.721Z,95069.40
2019-02-11T19:40:33.978Z,95079.54
2019-02-11T19:43:02.260Z,95080.35
2019-02-11T19:45:30.512Z,95089.62
2019-02-11T19:47:58.778Z,95082.09
2019-02-11T19:50:27.025Z,95081.19
2019-02-11T19:52:55.313Z,95084.20
2019-02-11T19:55:23.600Z,95084.98
2019-02-11T19:57:51.853Z,95087.94
2019-02-11T20:00:21.205Z,95090.91
2019-02-11T20:02:50.401Z,95100.94
2019-02-11T20:05:18.665Z,95122.00
2019-02-11T20:07:47.010Z,95114.00
2019-02-11T20:10:21.415Z,95111.89
2019-02-11T20:12:49.702Z,95118.20
2019-02-11T20:15:25.885Z,95121.58
2019-02-11T20:17:54.199Z,95128.77
2019-02-11T20:20:22.921Z,95128.69
2019-02-11T20:22:51.190Z,95145.98
2019-02-11T20:25:19.440Z,95143.03
2019-02-11T20:27:47.726Z,95135.90
2019-02-11T20:30:18.844Z,95144.75
2019-02-11T20:32:47.108Z,95137.16
2019-02-11T20:35:15.438Z,95135.81
2019-02-11T20:37:43.715Z,95129.05
2019-02-11T20:40:18.212Z,95132.84
2019-02-11T20:42:46.550Z,95138.73
2019-02-11T20:45:17.672Z,95139.66
2019-02-11T20:47:45.922Z,95149.80
2019-02-11T20:50:14.203Z,95136.69
2019-02-11T20:52:42.458Z,95153.59
2019-02-11T20:55:13.081Z,95135.88
2019-02-11T20:57:41.837Z,95129.58
2019-02-11T21:00:16.695Z,95139.66
2019-02-11T21:02:45.025Z,95148.88
2019-02-11T21:05:13.394Z,95142.10
2019-02-11T21:07:41.651Z,95142.52
2019-02-11T21:10:12.643Z,95149.33
2019-02-11T21:12:40.969Z,95149.33
2019-02-11T21:15:11.781Z,95150.20
2019-02-11T21:17:40.042Z,95134.97
2019-02-11T21:20:17.682Z,95138.82
2019-02-11T21:22:44.279Z,95139.69
2019-02-11T21:25:12.568Z,95137.19
2019-02-11T21:27:40.841Z,95148.56
2019-02-11T21:30:13.535Z,95143.94
2019-02-11T21:32:41.789Z,95148.09
2019-02-11T21:35:11.383Z,95149.38
2019-02-11T21:37:40.058Z,95146.46
2019-02-11T21:40:08.744Z,95135.51
2019-02-11T21:42:37.091Z,95141.86
2019-02-11T21:45:10.938Z,95135.48
2019-02-11T21:47:39.225Z,95119.92
2019-02-11T21:50:16.057Z,95119.53
2019-02-11T21:52:44.358Z,95125.45
2019-02-11T21:55:14.759Z,95119.53
2019-02-11T21:57:43.037Z,95127.56
2019-02-11T22:00:14.520Z,95126.72
2019-02-11T22:02:42.777Z,95119.98
2019-02-11T22:05:11.031Z,95130.95
2019-02-11T22:07:39.311Z,95123.37
2019-02-11T22:10:10.796Z,95144.44
2019-02-11T22:12:39.148Z,95127.11
2019-02-11T22:15:08.882Z,95134.69
2019-02-11T22:17:37.157Z,95140.14
2019-02-11T22:20:11.167Z,95135.53
2019-02-11T22:22:39.466Z,95143.98
2019-02-11T22:25:09.759Z,95140.59
2019-02-11T22:27:38.019Z,95135.00
2019-02-11T22:30:09.533Z,95141.73
2019-02-11T22:32:37.834Z,95140.03
2019-02-11T22:35:08.836Z,95139.55
2019-02-11T22:37:37.115Z,95155.58
2019-02-11T22:40:07.972Z,95149.59
2019-02-11T22:42:36.266Z,95160.57
2019-02-11T22:45:06.746Z,95168.09
2019-02-11T22:47:35.064Z,95171.04
2019-02-11T22:50:04.899Z,95171.48
2019-02-11T22:52:33.154Z,95173.20
2019-02-11T22:55:01.450Z,95176.58
2019-02-11T22:57:29.755Z,95167.28
2019-02-11T22:59:58.028Z,95187.33
2019-02-11T23:02:26.350Z,95177.65
2019-02-11T23:04:56.012Z,95189.05
2019-02-11T23:07:24.373Z,95177.61
2019-02-11T23:09:52.673Z,95181.83
2019-02-11T23:12:20.961Z,95170.42
2019-02-11T23:14:49.266Z,95186.81
2019-02-11T23:17:17.549Z,95194.29
2019-02-11T23:19:45.810Z,95189.63
2019-02-11T23:22:14.095Z,95189.63
2019-02-11T23:24:42.351Z,95195.97
2019-02-11T23:27:10.706Z,95203.90
2019-02-11T23:29:38.991Z,95206.39
2019-02-11T23:32:07.241Z,95207.27
2019-02-11T23:34:35.514Z,95200.50
2019-02-11T23:37:03.786Z,95209.76
2019-02-11T23:39:32.047Z,95211.86
2019-02-11T23:42:03.215Z,95205.94
2019-02-11T23:44:32.817Z,95211.80
2019-02-11T23:47:01.100Z,95218.14
2019-02-11T23:49:29.352Z,95218.14
2019-02-11T23:51:57.630Z,95218.17
2019-02-11T23:54:25.879Z,95209.34
2019-02-11T23:56:54.326Z,95225.68
2019-02-11T23:59:22.584Z,95230.63
